Texas Logo

South, TX Single Family Real Estate Listings

808 Total Real Estate Listings * Click on table heading to sort
Date Posted Property Type Style Address Price Living Area Lot Size Price/Sq Ft.
2017-08-22 Single Family Ranch 8108 Elvis Court Fort Worth, TX 76134 $176,900 2,211 sq. ft. 21,780 sq. ft. $80
2017-08-22 Single Family Ranch 8112 Elvis Court Fort Worth, TX 76134 $184,900 2,471 sq. ft. 21,780 sq. ft. $75
2017-08-21 Single Family Ranch 2001 Shane Fort Worth, TX 76134 $189,900 2,471 sq. ft. 48,787 sq. ft. $77
2017-08-21 Single Family Traditional 1836 Bolingbroke Place Fort Worth, TX 76140 $165,000 1,629 sq. ft. 9,148 sq. ft. $101
2017-08-21 Single Family 1116 Sunderland Lane Fort Worth, TX 76134 $189,900 2,323 sq. ft. 4,792 sq. ft. $82
2017-08-21 Single Family Traditional 5245 Trail Lake Drive Fort Worth, TX 76133 $149,999 1,205 sq. ft. 12,197 sq. ft. $124
2017-08-21 Single Family 4768 Trail Lake Drive Fort Worth, TX 76133 $165,000 1,344 sq. ft. 9,583 sq. ft. $123
2017-08-21 Single Family Traditional 3117 Tanglewood Trail Fort Worth, TX 76109 $399,900 1,885 sq. ft. 9,583 sq. ft. $212
2017-08-21 Single Family Traditional 1035 Harvey Avenue Fort Worth, TX 76104 $69,000 1,344 sq. ft. 6,098 sq. ft. $51
2017-08-21 Single Family Traditional 11220 Pleasant Wood Lane Fort Worth, TX 76140 $169,000 1,820 sq. ft. 5,663 sq. ft. $93
2017-08-21 Single Family Traditional 3724 Lynncrest Drive Fort Worth, TX 76109 $899,000 3,766 sq. ft. 25,265 sq. ft. $239
2017-08-21 Single Family Traditional 5109 Stacey Avenue Fort Worth, TX 76132 $232,000 1,984 sq. ft. 10,890 sq. ft. $117
2017-08-21 Single Family 7557 Sweet Meadows Drive Fort Worth, TX 76123 $189,900 2,190 sq. ft. 7,841 sq. ft. $87
2017-08-21 Single Family Traditional 2520 Woodlark Drive Fort Worth, TX 76123 $179,900 2,086 sq. ft. 6,534 sq. ft. $86
2017-08-21 Single Family Traditional 1913 Berrybrook Drive Fort Worth, TX 76134 $169,500 1,590 sq. ft. 5,227 sq. ft. $107
2017-08-20 Single Family Contemporary/Modern 7312 Southridge Trail Fort Worth, TX 76133 $130,000 1,584 sq. ft. 8,712 sq. ft. $82
2017-08-20 Single Family Ranch; Traditional 1517 Leuda Street Fort Worth, TX 76104 $167,700 1,446 sq. ft. 4,792 sq. ft. $116
2017-08-20 Single Family Ranch 6421 Poco Court Fort Worth, TX 76133 $249,900 2,605 sq. ft. 11,761 sq. ft. $96
2017-08-19 Single Family 1000 Dickson Street Fort Worth, TX 76110 $135,000 1,858 sq. ft. 5,663 sq. ft. $73
2017-08-19 Single Family Traditional 7229 Wagonwheel Road Fort Worth, TX 76133 $149,900 1,627 sq. ft. 5,227 sq. ft. $92
2017-08-19 Single Family Ranch; Traditional 4220 Bilglade Road Fort Worth, TX 76109 $298,763 2,091 sq. ft. 12,197 sq. ft. $143
2017-08-19 Single Family Traditional 3909 Wedgworth Road Fort Worth, TX 76133 $199,900 2,074 sq. ft. 10,019 sq. ft. $96
2017-08-19 Single Family Traditional 10540 Flagstaff Run Fort Worth, TX 76140 $163,900 1,808 sq. ft. 6,534 sq. ft. $91
2017-08-18 Single Family Traditional 817 Buffalo Springs Drive Fort Worth, TX 76140 $159,900 1,430 sq. ft. 7,405 sq. ft. $112
2017-08-18 Single Family Traditional 5451 Rutland Avenue Fort Worth, TX 76133 $179,000 2,231 sq. ft. 9,148 sq. ft. $80
2017-08-18 Single Family Ranch; Traditional 4212 Selkirk Drive Fort Worth, TX 76109 $269,700 1,854 sq. ft. 9,583 sq. ft. $145
2017-08-18 Single Family Traditional 4501 Corner Brook Lane Fort Worth, TX 76123 $224,900 2,563 sq. ft. 6,970 sq. ft. $88
2017-08-18 Single Family Traditional 5121 Dewdrop Lane Fort Worth, TX 76123 $240,000 3,650 sq. ft. 8,712 sq. ft. $66
2017-08-18 Single Family 3555 Cromart Court Fort Worth, TX 76133 $185,000 1,723 sq. ft. 10,019 sq. ft. $107
2017-08-18 Single Family Traditional 3965 Irish Setter Drive Fort Worth, TX 76123 $134,900 1,254 sq. ft. 5,663 sq. ft. $108
2017-08-18 Single Family Traditional 3200 Tanglewood Trail Fort Worth, TX 76109 $475,000 2,131 sq. ft. 10,019 sq. ft. $223
2017-08-18 Single Family Traditional 9128 Outback Drive Fort Worth, TX 76134 $257,148 2,242 sq. ft. 11,761 sq. ft. $115
2017-08-18 Single Family Traditional 2125 Swenson Ranch Trail Fort Worth, TX 76134 $215,454 1,730 sq. ft. 5,227 sq. ft. $125
2017-08-18 Single Family Traditional 9124 Outback Drive Fort Worth, TX 76134 $244,588 2,092 sq. ft. 7,405 sq. ft. $117
2017-08-18 Single Family Traditional 6524 Pecos Hill Lane Fort Worth, TX 76134 $315,266 2,853 sq. ft. 5,663 sq. ft. $110
2017-08-18 Single Family Traditional 6300 Rockrose Trail Fort Worth, TX 76123 $369,389 3,391 sq. ft. 11,761 sq. ft. $109
2017-08-18 Single Family Traditional 517 Fairbrook Lane Fort Worth, TX 76140 $212,000 2,400 sq. ft. 5,663 sq. ft. $88
2017-08-18 Single Family Traditional 8612 Balwood Drive Fort Worth, TX 76134 $179,900 2,216 sq. ft. 6,970 sq. ft. $81
2017-08-18 Single Family Ranch 5708 Trail Lake Drive Fort Worth, TX 76133 $169,000 1,733 sq. ft. 10,019 sq. ft. $98
2017-08-18 Single Family 5848 Burgundy Rose Drive Fort Worth, TX 76123 $219,000 2,062 sq. ft. 4,356 sq. ft. $106
2017-08-18 Single Family Traditional 7900 Colfax Lane Fort Worth, TX 76134 $132,900 1,311 sq. ft. 7,841 sq. ft. $101
2017-08-18 Single Family Traditional 532 Noble Grove Lane Fort Worth, TX 76140 $175,000 1,834 sq. ft. 5,663 sq. ft. $95
2017-08-17 Single Family Traditional 7271 Church Park Drive Fort Worth, TX 76133 $143,000 1,531 sq. ft. 7,405 sq. ft. $93
2017-08-17 Single Family Traditional 1221 Tucker Street Fort Worth, TX 76104 $12,000 1,246 sq. ft. 4,792 sq. ft. $10
2017-08-17 Single Family Ranch 3643 College Avenue Fort Worth, TX 76110 $115,900 1,050 sq. ft. 5,663 sq. ft. $110
2017-08-17 Single Family Traditional 6816 Vista Ridge Drive Fort Worth, TX 76132 $530,000 5,491 sq. ft. 2,614 sq. ft. $97
2017-08-17 Single Family Traditional 3524 5th Avenue Fort Worth, TX 76110 $103,000 840 sq. ft. 5,227 sq. ft. $123
2017-08-17 Single Family 12357 Silver Mist Trail Fort Worth, TX 76028 $155,000 1,391 sq. ft. 5,227 sq. ft. $111
2017-08-17 Single Family Traditional 6716 Oak Hill Drive Fort Worth, TX 76132 $1,200,000 5,754 sq. ft. 18,295 sq. ft. $209
2017-08-17 Single Family 4924 Belladonna Drive Fort Worth, TX 76123 $287,000 3,223 sq. ft. 7,405 sq. ft. $89
2017-08-17 Single Family Traditional 6260 Toscana Circle Fort Worth, TX 76140 $459,000 3,000 sq. ft. 47,480 sq. ft. $153
2017-08-17 Single Family Traditional 4748 Edenwood Drive Fort Worth, TX 76123 $289,900 3,111 sq. ft. 9,148 sq. ft. $93
2017-08-17 Single Family Traditional 805 Buffalo Springs Drive Fort Worth, TX 76140 $135,000 1,236 sq. ft. 6,098 sq. ft. $109
2017-08-17 Single Family 1020 Sandalwood Drive Fort Worth, TX 76140 $105,000 1,305 sq. ft. 10,019 sq. ft. $80
2017-08-17 Single Family Mid-Century Modern 3809 South Drive Fort Worth, TX 76109 $445,000 2,553 sq. ft. 13,939 sq. ft. $174
2017-08-17 Single Family Traditional 6279 Woodstream Trail Fort Worth, TX 76133 $122,000 1,328 sq. ft. 6,970 sq. ft. $92
2017-08-17 Single Family Traditional 6901 Vista Ridge Drive Fort Worth, TX 76132 $369,900 2,491 sq. ft. 10,454 sq. ft. $148
2017-08-16 Single Family Traditional 2812 South Meadow Drive Fort Worth, TX 76133 $129,900 1,351 sq. ft. 6,970 sq. ft. $96
2017-08-16 Single Family Colonial 1126 Mistletoe Drive Fort Worth, TX 76110 $850,000 4,710 sq. ft. 33,106 sq. ft. $180
2017-08-16 Single Family Traditional 5100 Paint Rock Court Fort Worth, TX 76132 $320,000 3,268 sq. ft. 14,375 sq. ft. $98
2017-08-16 Single Family Traditional 4600 Edenwood Drive Fort Worth, TX 76123 $239,900 2,452 sq. ft. 10,454 sq. ft. $98
2017-08-16 Single Family Traditional 913 Shaw Street Fort Worth, TX 76110 $120,000 1,288 sq. ft. 6,534 sq. ft. $93
2017-08-16 Single Family Traditional 2729 Forest Creek Drive Fort Worth, TX 76123 $179,900 2,333 sq. ft. 5,227 sq. ft. $77
2017-08-16 Single Family Traditional 1300 Mistletoe Drive Fort Worth, TX 76110 $1,300,000 5,270 sq. ft. 30,492 sq. ft. $247
2017-08-16 Single Family Traditional 7974 Hosta Way Fort Worth, TX 76123 $219,900 2,208 sq. ft. 6,098 sq. ft. $100
2017-08-15 Single Family Traditional 4374 Mccart Avenue Fort Worth, TX 76115 $89,900 828 sq. ft. 6,970 sq. ft. $109
2017-08-15 Single Family 4913 Bellflower Way Fort Worth, TX 76123 $219,900 2,201 sq. ft. 7,405 sq. ft. $100
2017-08-15 Single Family Traditional 2616 Winding Road Fort Worth, TX 76133 $104,900 997 sq. ft. 4,356 sq. ft. $105
2017-08-15 Single Family Traditional 2658 Riverwood Trail Fort Worth, TX 76109 $529,900 2,461 sq. ft. 12,197 sq. ft. $215
2017-08-15 Single Family 8433 Asheville Lane Fort Worth, TX 76123 $169,000 1,768 sq. ft. 5,663 sq. ft. $96
2017-08-15 Single Family Traditional 4375 Rota Circle Fort Worth, TX 76133 $215,000 2,694 sq. ft. 11,761 sq. ft. $80
2017-08-15 Single Family 2534 Winding Road Fort Worth, TX 76133 $129,900 1,255 sq. ft. 3,920 sq. ft. $104
2017-08-15 Single Family Traditional 2616 Coldstream Drive Fort Worth, TX 76123 $138,900 1,469 sq. ft. 6,534 sq. ft. $95
2017-08-15 Single Family Traditional 3529 Fuller Avenue Fort Worth, TX 76133 $159,900 1,449 sq. ft. 6,534 sq. ft. $110
2017-08-15 Single Family 10017 Silent Hollow Drive Fort Worth, TX 76140 $139,000 1,342 sq. ft. 5,663 sq. ft. $104
2017-08-15 Single Family Traditional 349 Blairwood Drive Fort Worth, TX 76134 $149,995 1,475 sq. ft. 5,663 sq. ft. $102
2017-08-15 Single Family Traditional 3709 Summercrest Drive Fort Worth, TX 76109 $594,500 2,872 sq. ft. 13,939 sq. ft. $207
2017-08-15 Single Family 3404 Fuller Avenue Fort Worth, TX 76133 $124,900 2,032 sq. ft. 6,970 sq. ft. $61
2017-08-15 Single Family 2817 Leith Avenue Fort Worth, TX 76133 $175,000 1,528 sq. ft. 10,019 sq. ft. $115
2017-08-15 Single Family 5205 Cockrell Avenue Fort Worth, TX 76133 $199,900 2,275 sq. ft. 8,712 sq. ft. $88
2017-08-14 Single Family Traditional 4720 Springwillow Road Fort Worth, TX 76109 $552,900 2,959 sq. ft. 13,068 sq. ft. $187
2017-08-14 Single Family Traditional 4921 Stadium Drive Fort Worth, TX 76133 $152,500 1,881 sq. ft. 8,712 sq. ft. $81
2017-08-14 Single Family 6905 Whitman Avenue Fort Worth, TX 76133 $148,000 1,855 sq. ft. 10,019 sq. ft. $80
2017-08-14 Single Family Traditional 7912 Buttercup Circle Fort Worth, TX 76123 $159,900 1,490 sq. ft. 6,534 sq. ft. $107
2017-08-14 Single Family 3417 Livingston Avenue Fort Worth, TX 76110 $99,900 720 sq. ft. 6,098 sq. ft. $139
2017-08-14 Single Family 3436 Stanley Avenue Fort Worth, TX 76110 $215,000 1,800 sq. ft. 6,098 sq. ft. $119
2017-08-14 Single Family A-Frame 704 Davis Avenue Fort Worth, TX 76104 $160,000 2,500 sq. ft. $64
2017-08-14 Single Family Traditional 1209 Ramsey Avenue Fort Worth, TX 76104 $79,900 672 sq. ft. 6,098 sq. ft. $119
2017-08-14 Single Family 1108 Baltimore Avenue Fort Worth, TX 76104 $65,000 884 sq. ft. 6,098 sq. ft. $74
2017-08-14 Single Family 1431 Baltimore Avenue Fort Worth, TX 76104 $65,000 1,032 sq. ft. 6,098 sq. ft. $63
2017-08-13 Single Family 8321 Tallahassee Lane Fort Worth, TX 76123 $163,000 1,695 sq. ft. 5,663 sq. ft. $96
2017-08-13 Single Family 8032 Ocean Drive Fort Worth, TX 76123 $275,000 2,978 sq. ft. 10,019 sq. ft. $92
2017-08-12 Single Family Traditional 2909 Deanne Court Fort Worth, TX 76123 $178,900 2,179 sq. ft. 10,019 sq. ft. $82
2017-08-12 Single Family Traditional 919 Allen Avenue Fort Worth, TX 76104 $169,888 1,324 sq. ft. 6,098 sq. ft. $128
2017-08-12 Single Family Traditional 7508 Red Willow Road Fort Worth, TX 76133 $147,950 1,523 sq. ft. 6,970 sq. ft. $97
2017-08-12 Single Family Traditional 5305 Westminster Court Fort Worth, TX 76133 $180,000 1,869 sq. ft. 10,890 sq. ft. $96
2017-08-12 Single Family A-Frame 2740 Grove Street Fort Worth, TX 76104 $69,900 864 sq. ft. 6,098 sq. ft. $81
2017-08-12 Single Family Traditional 4021 Boyd Avenue Fort Worth, TX 76109 $234,500 2,123 sq. ft. 11,326 sq. ft. $110
2017-08-12 Single Family Traditional 2526 Butterfield Drive Fort Worth, TX 76133 $105,000 955 sq. ft. 5,663 sq. ft. $110
2017-08-11 Single Family Traditional 6520 Cervantes Avenue Fort Worth, TX 76133 $116,500 1,183 sq. ft. 7,405 sq. ft. $98
2017-08-11 Single Family Traditional 1208 Sierra Blanca Drive Fort Worth, TX 76028 $193,000 1,772 sq. ft. 6,098 sq. ft. $109
2017-08-11 Single Family Ranch 6284 Davis Road Fort Worth, TX 76140 $459,900 2,958 sq. ft. 61,855 sq. ft. $155
2017-08-11 Single Family Traditional 1805 Alston Avenue Fort Worth, TX 76110 $410,000 2,712 sq. ft. 5,227 sq. ft. $151
2017-08-11 Single Family Tudor 3244 Wabash Avenue Fort Worth, TX 76109 $385,000 1,691 sq. ft. 6,534 sq. ft. $228
2017-08-11 Single Family 2618 Altamesa Boulevard Fort Worth, TX 76133 $85,000 909 sq. ft. 3,920 sq. ft. $94
2017-08-11 Single Family 2616 Altamesa Boulevard Fort Worth, TX 76133 $85,000 909 sq. ft. 4,356 sq. ft. $94
2017-08-11 Single Family Traditional 4009 Walton Avenue Fort Worth, TX 76133 $185,000 1,698 sq. ft. 11,761 sq. ft. $109
2017-08-11 Single Family Traditional 4409 Overton Crest Street Fort Worth, TX 76109 $1,750,000 5,028 sq. ft. 28,314 sq. ft. $348
2017-08-11 Single Family Traditional 6701 Park Drive Fort Worth, TX 76132 $498,000 3,626 sq. ft. 10,890 sq. ft. $137
2017-08-11 Single Family 1016 Oak Grove Road Fort Worth, TX 76028 $289,900 1,437 sq. ft. 139,392 sq. ft. $202
2017-08-11 Single Family Traditional 2800 Whitehurst Drive Fort Worth, TX 76133 $155,000 1,874 sq. ft. 8,276 sq. ft. $83
2017-08-11 Single Family Traditional 1013 Colvin Street Fort Worth, TX 76104 $59,900 1,080 sq. ft. 6,098 sq. ft. $55
2017-08-11 Single Family Traditional 8316 French Quarter Lane Fort Worth, TX 76123 $174,900 2,116 sq. ft. 7,841 sq. ft. $83
2017-08-11 Single Family Traditional 7304 Bramblewood Road Fort Worth, TX 76133 $269,400 2,906 sq. ft. 11,761 sq. ft. $93
2017-08-11 Single Family 3001 Woodlark Drive Fort Worth, TX 76123 $165,000 1,800 sq. ft. 6,098 sq. ft. $92
2017-08-11 Single Family Traditional 2552 Forest Creek Drive Fort Worth, TX 76123 $180,000 2,329 sq. ft. 6,534 sq. ft. $77
2017-08-11 Single Family 4817 Trail Lake Drive Fort Worth, TX 76133 $169,000 1,610 sq. ft. 10,890 sq. ft. $105
2017-08-11 Single Family 2629 Mill Springs Pass Fort Worth, TX 76123 $175,000 2,085 sq. ft. 6,534 sq. ft. $84
2017-08-11 Single Family Contemporary/Modern 4913 Westbriar Drive Fort Worth, TX 76109 $1,100,000 3,634 sq. ft. 7,841 sq. ft. $303
2017-08-11 Single Family Traditional 3864 South Drive Fort Worth, TX 76109 $364,000 2,612 sq. ft. 12,632 sq. ft. $139
2017-08-11 Single Family Traditional 3955 Cypress Gardens Drive Fort Worth, TX 76123 $175,000 1,918 sq. ft. 6,534 sq. ft. $91
2017-08-10 Single Family 6925 Brookvale Road Fort Worth, TX 76132 $279,000 2,037 sq. ft. 9,148 sq. ft. $137
2017-08-10 Single Family Traditional 5328 Westhaven Drive Fort Worth, TX 76132 $140,000 1,440 sq. ft. 10,019 sq. ft. $97
2017-08-10 Single Family Tudor 2009 Hawthorne Avenue Fort Worth, TX 76110 $679,900 3,258 sq. ft. 8,276 sq. ft. $209
2017-08-10 Single Family Traditional 3104 College Avenue Fort Worth, TX 76110 $135,000 1,764 sq. ft. 7,405 sq. ft. $77
2017-08-10 Single Family Traditional 4312 Selkirk Drive Fort Worth, TX 76109 $279,000 1,287 sq. ft. 15,246 sq. ft. $217
2017-08-10 Single Family 3712 Lawndale Avenue Fort Worth, TX 76133 $209,000 2,023 sq. ft. 10,890 sq. ft. $103
2017-08-10 Single Family Traditional 4913 Wheelock Drive Fort Worth, TX 76133 $239,950 2,142 sq. ft. 11,761 sq. ft. $112
2017-08-10 Single Family Traditional 2641 Harvest Moon Drive Fort Worth, TX 76123 $155,000 1,684 sq. ft. 6,098 sq. ft. $92
2017-08-10 Single Family Traditional 2905 Hills Avenue Fort Worth, TX 76109 $180,000 913 sq. ft. 6,970 sq. ft. $197
2017-08-10 Single Family Contemporary/Modern 3816 Harlanwood Drive Fort Worth, TX 76109 $525,000 2,743 sq. ft. 10,890 sq. ft. $191
2017-08-10 Single Family 3708 Glenmont Drive Fort Worth, TX 76133 $224,900 2,372 sq. ft. 10,019 sq. ft. $95
2017-08-10 Single Family Traditional 3505 Wedgway Drive Fort Worth, TX 76133 $189,000 1,646 sq. ft. 10,019 sq. ft. $115
2017-08-09 Single Family Mid-Century Modern 3104 Clovermeadow Drive Fort Worth, TX 76123 $210,000 2,367 sq. ft. 6,534 sq. ft. $89
2017-08-09 Single Family Traditional 4561 Marguerite Lane Fort Worth, TX 76123 $252,900 3,102 sq. ft. 5,663 sq. ft. $82
2017-08-09 Single Family A-Frame Fort Worth, TX $75,000 1,302 sq. ft. 6,098 sq. ft. $58
2017-08-09 Single Family Traditional 3700 Biddison Street Fort Worth, TX 76109 $649,900 3,382 sq. ft. 8,712 sq. ft. $192
2017-08-09 Single Family Ranch; Traditional 3708 Ashford Avenue Fort Worth, TX 76133 $274,900 2,437 sq. ft. 11,761 sq. ft. $113
2017-08-09 Single Family Traditional 4628 Sleepy Ridge Circle Fort Worth, TX 76133 $135,000 1,413 sq. ft. 5,663 sq. ft. $96
2017-08-09 Single Family Traditional 6733 Day Drive Fort Worth, TX 76132 $200,000 2,265 sq. ft. 5,663 sq. ft. $88
2017-08-09 Single Family Traditional 4916 Bellflower Way Fort Worth, TX 76123 $238,900 2,458 sq. ft. 7,841 sq. ft. $97
2017-08-08 Single Family Traditional 4012 Horizon Place Fort Worth, TX 76133 $179,900 2,199 sq. ft. 6,970 sq. ft. $82
2017-08-08 Single Family Traditional 3100 Stonewall Lane Fort Worth, TX 76123 $142,000 1,378 sq. ft. 4,792 sq. ft. $103
2017-08-08 Single Family 12533 Viewpoint Lane Fort Worth, TX 76028 $177,000 2,115 sq. ft. 5,663 sq. ft. $84
2017-08-08 Single Family Traditional 2409 Colonial Parkway Fort Worth, TX 76109 $1,400,000 2,920 sq. ft. 17,860 sq. ft. $479
2017-08-08 Single Family Traditional 8016 Colfax Lane Fort Worth, TX 76134 $135,000 1,391 sq. ft. $97
2017-08-08 Single Family A-Frame 600 Noble Grove Lane Fort Worth, TX 76140 $144,500 1,144 sq. ft. 5,663 sq. ft. $126
2017-08-08 Single Family Traditional 1413 Stafford Drive Fort Worth, TX 76134 $85,000 1,121 sq. ft. 8,712 sq. ft. $76
2017-08-08 Single Family Tudor 1021 Baltimore Avenue Fort Worth, TX 76104 $39,000 994 sq. ft. 6,098 sq. ft. $39
2017-08-08 Single Family Traditional 928 Marion Avenue Fort Worth, TX 76104 $68,000 1,716 sq. ft. 6,098 sq. ft. $40
2017-08-07 Single Family Traditional 9305 Martinique Lane Fort Worth, TX 76123 $195,000 3,256 sq. ft. 6,098 sq. ft. $60
2017-08-07 Single Family Tudor 2533 Greene Avenue Fort Worth, TX 76109 $479,900 2,255 sq. ft. 7,841 sq. ft. $213
2017-08-07 Single Family Ranch; Traditional 5501 Winifred Drive Fort Worth, TX 76133 $135,000 1,695 sq. ft. 8,276 sq. ft. $80
2017-08-07 Single Family 721 Dickson Street Fort Worth, TX 76110 $62,500 1,910 sq. ft. 6,970 sq. ft. $33
2017-08-07 Single Family 301 Morningside Drive Fort Worth, TX 76104 $124,900 1,072 sq. ft. 7,841 sq. ft. $117
2017-08-07 Single Family Traditional 8005 Belladonna Drive Fort Worth, TX 76123 $212,500 2,392 sq. ft. 6,098 sq. ft. $89
2017-08-07 Single Family 6500 Shoal Creek Road Fort Worth, TX 76132 $725,000 4,135 sq. ft. 13,068 sq. ft. $175
2017-08-07 Single Family Mediterranean 6016 Troon Road Fort Worth, TX 76132 $775,000 4,066 sq. ft. 8,276 sq. ft. $191
2017-08-07 Single Family Traditional 3212 Biddison Street Fort Worth, TX 76109 $335,000 1,544 sq. ft. 7,405 sq. ft. $217
2017-08-07 Single Family Traditional 2505 Willing Avenue Fort Worth, TX 76110 $299,000 1,593 sq. ft. 6,970 sq. ft. $188
2017-08-07 Single Family 8501 Meadow Sweet Lane Fort Worth, TX 76123 $249,000 1,891 sq. ft. 5,663 sq. ft. $132
2017-08-07 Single Family 8301 Meadow Sweet Lane Fort Worth, TX 76123 $269,000 1,891 sq. ft. 5,663 sq. ft. $142
2017-08-07 Single Family Traditional 4601 Maple Hill Drive Fort Worth, TX 76123 $229,900 2,487 sq. ft. 7,405 sq. ft. $92
2017-08-07 Single Family Traditional 4800 Westhaven Drive Fort Worth, TX 76132 $245,000 2,205 sq. ft. 13,939 sq. ft. $111
2017-08-06 Single Family 8112 Sweetwater Lane Fort Worth, TX 76134 $154,900 1,491 sq. ft. 5,663 sq. ft. $104
2017-08-06 Single Family Traditional 1329 Sierra Blanca Drive Fort Worth, TX 76028 $209,990 2,031 sq. ft. 6,098 sq. ft. $103
2017-08-06 Single Family 3308 Glenmont Street Fort Worth, TX 76133 $184,900 1,621 sq. ft. 10,890 sq. ft. $114
2017-08-06 Single Family 3212 Mccart Avenue Fort Worth, TX 76110 $250,000 1,269 sq. ft. 6,098 sq. ft. $197
2017-08-06 Single Family 1940 Berkeley Place Fort Worth, TX 76110 $585,000 2,570 sq. ft. 10,890 sq. ft. $228
2017-08-06 Single Family Traditional 3367 Boyce Avenue Fort Worth, TX 76133 $120,000 948 sq. ft. 6,534 sq. ft. $127
2017-08-05 Single Family Ranch 8303 Anglin Drive Fort Worth, TX 76140 $450,000 5,245 sq. ft. 679,972 sq. ft. $86
2017-08-05 Single Family Traditional 8409 Rock Canyon Court Fort Worth, TX 76123 $239,000 2,329 sq. ft. 7,841 sq. ft. $103
2017-08-05 Single Family Traditional 4412 Fiesta Circle Fort Worth, TX 76133 $274,500 2,635 sq. ft. 10,454 sq. ft. $104
2017-08-05 Single Family 11009 Deer Trail Fort Worth, TX 76140 $180,000 1,820 sq. ft. 5,663 sq. ft. $99
2017-08-05 Single Family Traditional 4715 Dick Price Road Fort Worth, TX 76140 $249,900 2,160 sq. ft. 87,120 sq. ft. $116
2017-08-05 Single Family Traditional 7921 Buttercup Circle Fort Worth, TX 76123 $160,000 1,683 sq. ft. 6,534 sq. ft. $95
2017-08-05 Single Family 2052 Matador Ranch Road Fort Worth, TX 76134 $165,000 1,430 sq. ft. 4,792 sq. ft. $115
2017-08-04 Single Family Traditional 3712 Biddison Street Fort Worth, TX 76109 $765,000 4,306 sq. ft. 13,068 sq. ft. $178
2017-08-04 Single Family 4360 Rota Circle Fort Worth, TX 76133 $249,900 2,448 sq. ft. 15,682 sq. ft. $102
2017-08-04 Single Family Traditional 7432 Ashbourne Way Fort Worth, TX 76133 $135,000 1,265 sq. ft. 6,534 sq. ft. $107
2017-08-04 Single Family Traditional 2215 Ward Parkway Fort Worth, TX 76110 $740,000 2,814 sq. ft. 21,780 sq. ft. $263
2017-08-04 Single Family 4208 Hartwood Drive Fort Worth, TX 76109 $345,000 2,366 sq. ft. 12,197 sq. ft. $146
2017-08-04 Single Family Traditional 4241 Selkirk Drive Fort Worth, TX 76109 $425,000 2,738 sq. ft. 6,534 sq. ft. $155
2017-08-04 Single Family Traditional 3025 Alton Road Fort Worth, TX 76109 $699,000 1,788 sq. ft. 16,988 sq. ft. $391
2017-08-04 Single Family Ranch; Spanish; Traditional 4316 Briarhaven Road Fort Worth, TX 76109 $898,000 3,353 sq. ft. 20,909 sq. ft. $268
2017-08-04 Single Family 2132 Weatherbee Street Fort Worth, TX 76110 $350,000 1,606 sq. ft. 7,841 sq. ft. $218
2017-08-04 Single Family Traditional 8404 Weeping Cherry Lane Fort Worth, TX 76140 $149,900 1,391 sq. ft. 4,792 sq. ft. $108
2017-08-04 Single Family Traditional 6812 Vista Ridge Drive Fort Worth, TX 76132 $435,000 3,150 sq. ft. 9,583 sq. ft. $138
2017-08-04 Single Family Craftsman 4129 Sandage Avenue Fort Worth, TX 76115 $75,000 799 sq. ft. 8,276 sq. ft. $94
2017-08-04 Single Family Prairie 1700 Fairmount Drive Fort Worth, TX 76110 $526,000 3,036 sq. ft. 6,970 sq. ft. $173
2017-08-04 Single Family 4604 Fair Park Boulevard Fort Worth, TX 76115 $87,500 1,380 sq. ft. 7,841 sq. ft. $63
2017-08-04 Single Family Traditional 5700 Wimbleton Way Fort Worth, TX 76133 $189,500 2,389 sq. ft. 17,424 sq. ft. $79
2017-08-04 Single Family Traditional 2708 Meadow Ridge Drive Fort Worth, TX 76133 $132,000 1,198 sq. ft. 7,405 sq. ft. $110
2017-08-04 Single Family Craftsman 1626 Adams Fort Worth, TX 76104 $520,000 2,736 sq. ft. 4,792 sq. ft. $190
2017-08-04 Single Family Traditional 1280 Kielder Circle Fort Worth, TX 76134 $142,500 1,440 sq. ft. 4,356 sq. ft. $99
2017-08-04 Single Family 4836 Madyson Ridge Drive Fort Worth, TX 76133 $225,000 2,711 sq. ft. 5,663 sq. ft. $83
2017-08-04 Single Family Traditional 10521 Flamewood Drive Fort Worth, TX 76140 $126,900 1,176 sq. ft. 4,356 sq. ft. $108
2017-08-04 Single Family 4713 Darla Drive Fort Worth, TX 76132 $116,500 1,177 sq. ft. 8,712 sq. ft. $99
2017-08-04 Single Family Contemporary/Modern 4429 Overton Terrace Court Fort Worth, TX 76109 $615,000 2,559 sq. ft. 9,583 sq. ft. $240
2017-08-04 Single Family Traditional 312 Fawn Hill Drive Fort Worth, TX 76134 $165,000 1,972 sq. ft. 5,663 sq. ft. $84
2017-08-04 Single Family Traditional 4804 Palm Ridge Drive Fort Worth, TX 76133 $180,000 2,938 sq. ft. 5,663 sq. ft. $61
2017-08-03 Single Family Split Level; Traditional 2605 Prospect Hill Drive Fort Worth, TX 76123 $189,900 2,523 sq. ft. 6,098 sq. ft. $75
2017-08-03 Single Family 5662 Odessa Avenue Fort Worth, TX 76133 $179,000 1,574 sq. ft. 10,890 sq. ft. $114
2017-08-03 Single Family Traditional 5733 Winifred Drive Fort Worth, TX 76133 $210,000 2,327 sq. ft. 11,326 sq. ft. $90
2017-08-03 Single Family 7412 Marlborough Drive Fort Worth, TX 76134 $148,000 1,623 sq. ft. 9,148 sq. ft. $91
2017-08-03 Single Family Traditional 1817 Beacon Way Fort Worth, TX 76140 $157,000 1,525 sq. ft. 7,405 sq. ft. $103
2017-08-03 Single Family 4712 Trail Lake Drive Fort Worth, TX 76133 $114,950 1,316 sq. ft. 11,326 sq. ft. $87
2017-08-03 Single Family Mid-Century Modern 3805 Summercrest Drive Fort Worth, TX 76109 $626,500 2,506 sq. ft. 12,632 sq. ft. $250
2017-08-03 Single Family Traditional 7228 Water Meadows Drive Fort Worth, TX 76123 $335,000 3,053 sq. ft. 6,534 sq. ft. $110
2017-08-03 Single Family Traditional 8024 Malabar Trail Fort Worth, TX 76123 $200,000 1,997 sq. ft. 9,148 sq. ft. $100
2017-08-03 Single Family Mediterranean 5473 Night Sage Lane Fort Worth, TX 76109 $1,499,900 4,382 sq. ft. 18,295 sq. ft. $342
2017-08-03 Single Family Traditional 5329 Smokey Ridge Drive Fort Worth, TX 76123 $205,000 1,630 sq. ft. 6,534 sq. ft. $126
2017-08-03 Single Family Traditional 5629 Wheaton Drive Fort Worth, TX 76133 $165,000 1,787 sq. ft. 8,712 sq. ft. $92
2017-08-03 Single Family Traditional 6605 Stockton Drive Fort Worth, TX 76132 $169,900 1,575 sq. ft. 6,098 sq. ft. $108
2017-08-03 Single Family 1012 Arlington Fort Worth, TX 76110 $172,000 1,235 sq. ft. 5,227 sq. ft. $139
2017-08-03 Single Family Traditional 1525 Glasgow Road Fort Worth, TX 76134 $95,000 1,689 sq. ft. 9,148 sq. ft. $56
2017-08-03 Single Family Traditional 6525 Longhorn Herd Lane Fort Worth, TX 76123 $253,300 1,849 sq. ft. 5,663 sq. ft. $137
2017-08-03 Single Family Traditional 9205 Nightingale Drive Fort Worth, TX 76123 $185,000 2,398 sq. ft. 5,663 sq. ft. $77
2017-08-03 Single Family Traditional 7104 Wagonwheel Road Fort Worth, TX 76133 $120,000 1,309 sq. ft. 4,792 sq. ft. $92
2017-08-03 Single Family 5908 Winifred Drive Fort Worth, TX 76133 $210,000 1,700 sq. ft. 9,148 sq. ft. $124
2017-08-02 Single Family 4236 Winfield Avenue Fort Worth, TX 76109 $305,000 2,043 sq. ft. 12,197 sq. ft. $149
2017-08-02 Single Family 5520 Trail Lake Drive Fort Worth, TX 76133 $149,500 1,133 sq. ft. 8,276 sq. ft. $132
2017-08-02 Single Family 7977 Adobe Drive Fort Worth, TX 76123 $182,900 2,056 sq. ft. $89
2017-08-02 Single Family 4804 Ridge Terrace Fort Worth, TX 76133 $135,000 1,208 sq. ft. 8,276 sq. ft. $112
2017-08-02 Single Family 7025 Misty Meadow Fort Worth, TX 76133 $168,900 1,612 sq. ft. $105
2017-08-02 Single Family Traditional 3705 Glenmont Drive Fort Worth, TX 76133 $169,500 2,218 sq. ft. 11,326 sq. ft. $76
2017-08-02 Single Family Traditional 12364 Silver Mist Trail Fort Worth, TX 76028 $194,900 2,673 sq. ft. 6,098 sq. ft. $73
2017-08-02 Single Family Traditional 2504 Shirley Avenue Fort Worth, TX 76109 $379,000 1,114 sq. ft. 7,841 sq. ft. $340
2017-08-02 Single Family Traditional 3808 Clear Brook Circle Fort Worth, TX 76123 $124,900 1,930 sq. ft. 8,276 sq. ft. $65
2017-08-02 Single Family 150 Valera Court Fort Worth, TX 76134 $150,999 1,565 sq. ft. $96
2017-08-02 Single Family Traditional 609 Morningside Fort Worth, TX 76104 $44,900 1,216 sq. ft. $37
2017-08-02 Single Family Traditional Fort Worth, TX $59,000 1,270 sq. ft. 4,792 sq. ft. $46
2017-08-02 Single Family Mediterranean 6501 Saucon Valley Drive Fort Worth, TX 76132 $924,900 4,066 sq. ft. 16,988 sq. ft. $227
2017-08-02 Single Family Traditional 6436 Rockrose Trail Fort Worth, TX 76123 $303,891 2,267 sq. ft. 8,712 sq. ft. $134
2017-08-02 Single Family French 2448 Winton Terrace Fort Worth, TX 76109 $990,000 3,963 sq. ft. 9,583 sq. ft. $250
2017-08-01 Single Family Traditional 12501 Summerwood Drive Fort Worth, TX 76028 $234,900 3,179 sq. ft. 7,405 sq. ft. $74
2017-08-01 Single Family Traditional 1318 Evans Avenue Fort Worth, TX 76104 $74,900 896 sq. ft. 4,356 sq. ft. $84
2017-08-01 Single Family Traditional 1309 Richmond Avenue Fort Worth, TX 76104 $74,900 1,016 sq. ft. 6,098 sq. ft. $74
2017-08-01 Single Family 204 New York Avenue Fort Worth, TX 76104 $99,000 1,472 sq. ft. 5,663 sq. ft. $67
2017-08-01 Single Family 216 Dakota Ridge Drive Fort Worth, TX 76134 $149,900 1,658 sq. ft. 5,663 sq. ft. $90
2017-08-01 Single Family 4650 Trail Lake Drive Fort Worth, TX 76133 $134,900 1,703 sq. ft. 5,227 sq. ft. $79
2017-08-01 Single Family 1507 Fairmount Avenue Fort Worth, TX 76104 $215,000 1,453 sq. ft. 6,970 sq. ft. $148
2017-08-01 Single Family Traditional 5740 Wimbleton Way Fort Worth, TX 76133 $233,950 2,503 sq. ft. $93
2017-08-01 Single Family Traditional 2720 Colonial Parkway Fort Worth, TX 76109 $1,575,000 6,272 sq. ft. 30,492 sq. ft. $251
2017-08-01 Single Family Traditional 3217 Mccart Avenue Fort Worth, TX 76110 $378,900 1,951 sq. ft. 6,098 sq. ft. $194
2017-08-01 Single Family Traditional 3700 Ashley Lane Fort Worth, TX 76123 $162,500 1,605 sq. ft. 7,841 sq. ft. $101
2017-08-01 Single Family Tudor 3221 Rogers Avenue Fort Worth, TX 76109 $325,000 1,286 sq. ft. 6,098 sq. ft. $253
2017-07-31 Single Family Traditional 1124 Sandalwood Drive Fort Worth, TX 76140 $140,000 1,268 sq. ft. 6,534 sq. ft. $110
2017-07-31 Single Family Traditional 3733 Cove Meadow Lane Fort Worth, TX 76123 $179,900 1,741 sq. ft. 6,970 sq. ft. $103
2017-07-31 Single Family Traditional 7982 Hosta Way Fort Worth, TX 76123 $205,000 2,144 sq. ft. 6,098 sq. ft. $96
2017-07-31 Single Family Mediterranean 3900 Bent Elm Lane Fort Worth, TX 76109 $1,049,000 3,841 sq. ft. 10,454 sq. ft. $273
2017-07-31 Single Family 6721 Day Drive Fort Worth, TX 76132 $212,900 1,914 sq. ft. 5,663 sq. ft. $111
2017-07-31 Single Family Traditional 3728 Fleetwood Drive Fort Worth, TX 76123 $175,000 1,698 sq. ft. 6,098 sq. ft. $103
2017-07-31 Single Family Traditional 3866 Hills Circle Fort Worth, TX 76109 $1,300,000 3,875 sq. ft. 53,143 sq. ft. $335
2017-07-31 Single Family 6016 Welch Avenue Fort Worth, TX 76133 $199,900 1,926 sq. ft. 10,019 sq. ft. $104
2017-07-31 Single Family Traditional 4913 Mccart Avenue Fort Worth, TX 76115 $85,000 1,070 sq. ft. 6,098 sq. ft. $79
2017-07-31 Single Family Traditional 5424 Whitten Street Fort Worth, TX 76134 $124,900 1,326 sq. ft. 8,712 sq. ft. $94
2017-07-30 Single Family Ranch 6005 Wiser Avenue Fort Worth, TX 76133 $200,000 2,011 sq. ft. 10,454 sq. ft. $99
2017-07-30 Single Family Traditional 5304 Odell Drive Fort Worth, TX 76115 $114,900 973 sq. ft. 17,860 sq. ft. $118
2017-07-30 Single Family Early American 4945 Stadium Drive Fort Worth, TX 76133 $159,500 1,404 sq. ft. $114
2017-07-30 Single Family Traditional 8025 Cedar Lake Lane Fort Worth, TX 76123 $235,000 2,366 sq. ft. 5,663 sq. ft. $99
2017-07-30 Single Family Contemporary/Modern 4620 Springway Lane Fort Worth, TX 76123 $208,000 2,184 sq. ft. 5,663 sq. ft. $95
2017-07-29 Single Family Traditional 305 Blairwood Drive Fort Worth, TX 76134 $234,900 3,478 sq. ft. 5,663 sq. ft. $68
2017-07-29 Single Family Contemporary/Modern 1217 Doe Meadow Drive Fort Worth, TX 76028 $205,000 1,742 sq. ft. $118
2017-07-29 Single Family Ranch 3600 Norfolk Road Fort Worth, TX 76109 $524,900 2,600 sq. ft. 17,424 sq. ft. $202
2017-07-29 Single Family Traditional 4708 Selkirk Drive Fort Worth, TX 76109 $280,000 1,467 sq. ft. 13,068 sq. ft. $191
2017-07-29 Single Family Colonial; Traditional 2560 Boyd Avenue Fort Worth, TX 76109 $575,000 3,219 sq. ft. 10,019 sq. ft. $179
2017-07-29 Single Family 2309 Ryan Avenue Fort Worth, TX 76110 $449,900 2,405 sq. ft. 7,405 sq. ft. $187
2017-07-29 Single Family 10908 Blythe Court Fort Worth, TX 76028 $185,900 1,847 sq. ft. 13,504 sq. ft. $101
2017-07-29 Single Family 7117 Wagonwheel Road Fort Worth, TX 76133 $148,000 1,166 sq. ft. 4,792 sq. ft. $127
2017-07-29 Single Family Traditional 5252 Ruston Avenue Fort Worth, TX 76133 $144,900 1,434 sq. ft. 8,712 sq. ft. $101
2017-07-28 Single Family Traditional 3874 Hills Circle Fort Worth, TX 76109 $950,000 3,051 sq. ft. 43,560 sq. ft. $311
2017-07-28 Single Family 1725 Whispering Cove Trail Fort Worth, TX 76134 $178,900 1,756 sq. ft. 6,098 sq. ft. $102
2017-07-28 Single Family 12309 Hunters Cabin Court Fort Worth, TX 76028 $164,999 1,580 sq. ft. 5,663 sq. ft. $104
2017-07-28 Single Family Craftsman; Traditional 2942 8th Avenue Fort Worth, TX 76110 $349,900 2,339 sq. ft. 6,098 sq. ft. $150
2017-07-28 Single Family Traditional 12537 Patnoe Drive Fort Worth, TX 76028 $242,000 3,068 sq. ft. 7,841 sq. ft. $79
2017-07-28 Single Family Traditional 512 Crescent Creek Lane Fort Worth, TX 76140 $157,000 1,665 sq. ft. 6,098 sq. ft. $94
2017-07-28 Single Family Traditional 6239 Rendon New Hope Road Fort Worth, TX 76140 $250,000 2,092 sq. ft. 67,082 sq. ft. $120
2017-07-28 Single Family Traditional 12516 Viewpoint Lane Fort Worth, TX 76028 $235,000 2,977 sq. ft. 6,534 sq. ft. $79
2017-07-28 Single Family Craftsman 1414 Washington Avenue Fort Worth, TX 76104 $268,000 1,392 sq. ft. 4,792 sq. ft. $193
2017-07-28 Single Family 9004 Hunting Green Court Fort Worth, TX 76134 $149,500 1,491 sq. ft. 6,970 sq. ft. $100
2017-07-28 Single Family Traditional 12229 Silver Mist Trail Fort Worth, TX 76028 $165,000 1,458 sq. ft. 5,227 sq. ft. $113
2017-07-28 Single Family 8405 Whispering Willow Lane Fort Worth, TX 76134 $209,900 2,797 sq. ft. 6,098 sq. ft. $75
2017-07-28 Single Family 2708 Ryan Avenue Fort Worth, TX 76110 $179,900 927 sq. ft. 6,534 sq. ft. $194
2017-07-28 Single Family Traditional 4613 South Drive Fort Worth, TX 76132 $115,900 1,191 sq. ft. 8,712 sq. ft. $97
2017-07-28 Single Family Traditional 4813 South Drive Fort Worth, TX 76132 $369,900 3,117 sq. ft. 22,651 sq. ft. $119
2017-07-28 Single Family 8433 Auburn Drive Fort Worth, TX 76123 $139,900 1,161 sq. ft. 4,792 sq. ft. $120
2017-07-28 Single Family 8321 Cutter Hill Avenue Fort Worth, TX 76134 $179,000 2,622 sq. ft. 5,663 sq. ft. $68
2017-07-28 Single Family Traditional 12320 Hunters Crossing Lane Fort Worth, TX 76028 $179,000 1,545 sq. ft. 6,970 sq. ft. $116
2017-07-27 Single Family Ranch; Traditional 5721 Walla Avenue Fort Worth, TX 76133 $193,900 2,002 sq. ft. 10,454 sq. ft. $97
2017-07-27 Single Family Traditional 9213 Crossvine Way Fort Worth, TX 76123 $316,900 2,535 sq. ft. $125
2017-07-27 Single Family Traditional 412 Cameron Hill Point Fort Worth, TX 76134 $212,800 2,002 sq. ft. 6,098 sq. ft. $106
2017-07-27 Single Family Ranch 5813 Wessex Avenue Fort Worth, TX 76133 $139,950 2,293 sq. ft. 12,197 sq. ft. $61
2017-07-27 Single Family Traditional 9120 Outback Drive Fort Worth, TX 76134 $223,921 1,862 sq. ft. 6,098 sq. ft. $120
2017-07-27 Single Family Traditional 9112 Outback Drive Fort Worth, TX 76134 $212,850 1,730 sq. ft. 6,098 sq. ft. $123
2017-07-27 Single Family Traditional 2801 Biddison Street Fort Worth, TX 76109 $290,000 2,310 sq. ft. 5,663 sq. ft. $126
2017-07-27 Single Family 8324 Summer Park Drive Fort Worth, TX 76123 $322,000 4,554 sq. ft. 8,712 sq. ft. $71
2017-07-27 Single Family Traditional 9117 Cheswick Drive Fort Worth, TX 76123 $206,900 3,928 sq. ft. 5,663 sq. ft. $53
2017-07-27 Single Family Traditional 9108 Nightingale Drive Fort Worth, TX 76123 $165,000 1,560 sq. ft. 5,663 sq. ft. $106
2017-07-27 Single Family Traditional 6548 Longhorn Herd Lane Fort Worth, TX 76123 $276,909 2,242 sq. ft. 6,098 sq. ft. $124
2017-07-27 Single Family 6004 Rayburn Drive Fort Worth, TX 76133 $165,000 2,017 sq. ft. 10,890 sq. ft. $82
2017-07-27 Single Family Traditional 1307 Verbena Street Fort Worth, TX 76104 $79,900 860 sq. ft. 6,098 sq. ft. $93
2017-07-27 Single Family Traditional 4274 Cadiz Drive Fort Worth, TX 76133 $280,000 3,014 sq. ft. 12,197 sq. ft. $93
2017-07-27 Single Family Traditional 9201 Peaceful Terrace Fort Worth, TX 76123 $174,900 1,740 sq. ft. 5,663 sq. ft. $101
2017-07-27 Single Family Traditional 4705 Poplar Ridge Drive Fort Worth, TX 76123 $210,000 2,437 sq. ft. 7,405 sq. ft. $86
2017-07-27 Single Family Traditional 5341 Whitten Street Fort Worth, TX 76134 $80,000 1,155 sq. ft. 9,148 sq. ft. $69
2017-07-26 Single Family Traditional 2504 Creekwood Lane Fort Worth, TX 76123 $147,500 1,353 sq. ft. 6,098 sq. ft. $109
2017-07-26 Single Family Traditional 6295 Rendon New Hope Road Fort Worth, TX 76140 $134,500 2,128 sq. ft. 52,272 sq. ft. $63
2017-07-26 Single Family Traditional 3015 Willing Avenue Fort Worth, TX 76110 $269,900 1,072 sq. ft. 6,098 sq. ft. $252
2017-07-26 Single Family Traditional 6701 Clear Spring Drive Fort Worth, TX 76132 $499,000 4,114 sq. ft. 12,197 sq. ft. $121
2017-07-26 Single Family Traditional 7958 Hosta Way Fort Worth, TX 76123 $215,000 2,125 sq. ft. 6,098 sq. ft. $101
2017-07-26 Single Family 3233 Lubbock Avenue Fort Worth, TX 76109 $265,000 1,369 sq. ft. 6,098 sq. ft. $194
2017-07-26 Single Family Traditional 5732 Waltham Avenue Fort Worth, TX 76133 $152,000 1,631 sq. ft. 12,632 sq. ft. $93
2017-07-26 Single Family 4228 Adams Street Fort Worth, TX 76115 $99,000 1,125 sq. ft. 6,098 sq. ft. $88
2017-07-26 Single Family Traditional 5021 Lake Valley Court Fort Worth, TX 76123 $170,000 1,866 sq. ft. 9,583 sq. ft. $91
2017-07-26 Single Family Ranch; Traditional 3816 Kelvin Avenue Fort Worth, TX 76133 $225,000 1,980 sq. ft. 12,197 sq. ft. $114
2017-07-26 Single Family Traditional 425 Pineview Lane Fort Worth, TX 76140 $169,900 1,820 sq. ft. 5,663 sq. ft. $93
2017-07-25 Single Family 1041 Elmwood Avenue Fort Worth, TX 76104 $85,000 1,535 sq. ft. 6,534 sq. ft. $55
2017-07-25 Single Family Ranch 4336 Gorman Drive Fort Worth, TX 76132 $165,000 2,204 sq. ft. 12,197 sq. ft. $75
2017-07-25 Single Family Traditional 3200 Spanish Oak Drive Fort Worth, TX 76109 $435,000 2,134 sq. ft. 11,326 sq. ft. $204
2017-07-25 Single Family Traditional 8328 Summer Park Drive Fort Worth, TX 76123 $289,000 4,023 sq. ft. 9,148 sq. ft. $72
2017-07-25 Single Family 6908 Penhurst Drive Fort Worth, TX 76133 $95,000 1,432 sq. ft. 6,534 sq. ft. $66
2017-07-25 Single Family Colonial 2425 Colonial Parkway Fort Worth, TX 76109 $1,150,000 3,647 sq. ft. 12,197 sq. ft. $315
2017-07-25 Single Family Traditional 4625 Summer Oaks Lane Fort Worth, TX 76123 $215,000 2,355 sq. ft. 5,663 sq. ft. $91
2017-07-25 Single Family Traditional 3465 Cayman Drive Fort Worth, TX 76123 $159,900 2,000 sq. ft. 6,534 sq. ft. $80
2017-07-25 Single Family Traditional 6105 Walraven Circle Fort Worth, TX 76133 $269,995 2,432 sq. ft. 9,583 sq. ft. $111
2017-07-24 Single Family 6909 Vista Ridge Court Fort Worth, TX 76132 $449,000 3,029 sq. ft. 9,148 sq. ft. $148
2017-07-24 Single Family Victorian 1620 Alston Avenue Fort Worth, TX 76104 $440,000 2,200 sq. ft. 7,841 sq. ft. $200
2017-07-24 Single Family Traditional 3725 Fox Hollow Street Fort Worth, TX 76109 $789,900 3,668 sq. ft. 20,909 sq. ft. $215
2017-07-24 Single Family Traditional 4262 Altura Road Fort Worth, TX 76109 $765,000 3,679 sq. ft. 29,185 sq. ft. $208
2017-07-24 Single Family Traditional 1312 Nelson Place Fort Worth, TX 76028 $152,000 1,232 sq. ft. 6,970 sq. ft. $123
2017-07-24 Single Family Traditional 6432 Rockrose Trail Fort Worth, TX 76123 $320,133 2,641 sq. ft. 8,276 sq. ft. $121
2017-07-24 Single Family Traditional 6504 Pecos Hill Lane Fort Worth, TX 76123 $271,659 2,092 sq. ft. 6,970 sq. ft. $130
2017-07-22 Single Family Traditional 6913 Winifred Drive Fort Worth, TX 76133 $168,700 1,532 sq. ft. 10,890 sq. ft. $110
2017-07-22 Single Family Traditional 1415 Terrell Avenue Fort Worth, TX 76104 $110,000 1,008 sq. ft. 6,534 sq. ft. $109
2017-07-22 Single Family Contemporary/Modern; Traditional 8324 Ohara Lane Fort Worth, TX 76123 $145,000 1,719 sq. ft. 6,098 sq. ft. $84
2017-07-22 Single Family 521 Noble Grove Lane Fort Worth, TX 76140 $200,000 2,556 sq. ft. 5,663 sq. ft. $78
2017-07-21 Single Family Traditional 5821 Walraven Circle Fort Worth, TX 76133 $149,900 1,604 sq. ft. 11,326 sq. ft. $93
2017-07-21 Single Family 5205 Sunwood Circle Fort Worth, TX 76123 $252,000 2,378 sq. ft. 7,405 sq. ft. $106
2017-07-21 Single Family 1117 Mckavett Drive Fort Worth, TX 76140 $149,000 1,152 sq. ft. 7,841 sq. ft. $129
2017-07-21 Single Family Ranch; Traditional 10901 Deer Creek Drive Fort Worth, TX 76028 $245,000 2,591 sq. ft. 11,326 sq. ft. $95
2017-07-21 Single Family Traditional 2705 Greene Avenue Fort Worth, TX 76109 $394,000 1,590 sq. ft. 7,841 sq. ft. $248
2017-07-21 Single Family 4612 Darla Drive Fort Worth, TX 76132 $199,900 1,568 sq. ft. 10,019 sq. ft. $127
2017-07-21 Single Family Traditional 6238 Toscana Circle Fort Worth, TX 76140 $569,000 4,000 sq. ft. 47,480 sq. ft. $142
2017-07-21 Single Family Craftsman 2700 Bewick Street Fort Worth, TX 76109 $389,000 1,995 sq. ft. 6,970 sq. ft. $195
2017-07-21 Single Family Traditional 5232 Meadowland Drive Fort Worth, TX 76123 $249,000 2,861 sq. ft. 12,632 sq. ft. $87
2017-07-20 Single Family Traditional 3505 Wayland Drive Fort Worth, TX 76133 $174,900 1,632 sq. ft. 9,583 sq. ft. $107
2017-07-20 Single Family Traditional 1701 King Arthurs Court Fort Worth, TX 76140 $189,900 2,001 sq. ft. 7,405 sq. ft. $95
2017-07-20 Single Family English; Traditional 2555 Waits Avenue Fort Worth, TX 76109 $989,000 4,165 sq. ft. 7,405 sq. ft. $237
2017-07-20 Single Family Traditional 4844 Star Ridge Drive Fort Worth, TX 76133 $174,900 1,737 sq. ft. 5,663 sq. ft. $101
2017-07-20 Single Family Traditional 5026 Mountain Spring Trail Fort Worth, TX 76123 $129,900 1,450 sq. ft. 2,614 sq. ft. $90
2017-07-20 Single Family 8357 Blue Periwinkle Lane Fort Worth, TX 76123 $269,000 2,197 sq. ft. 5,663 sq. ft. $122
2017-07-20 Single Family Traditional 4833 Alicia Drive Fort Worth, TX 76133 $212,000 1,902 sq. ft. 8,276 sq. ft. $111
2017-07-20 Single Family Traditional 5209 Rector Avenue Fort Worth, TX 76133 $169,900 1,622 sq. ft. 9,583 sq. ft. $105
2017-07-20 Single Family 3028 James Avenue Fort Worth, TX 76110 $135,000 1,312 sq. ft. 6,098 sq. ft. $103
2017-07-20 Single Family Traditional 7720 Greengage Drive Fort Worth, TX 76133 $155,000 2,166 sq. ft. 6,534 sq. ft. $72
2017-07-20 Single Family Traditional 3917 Spurgeon Street Fort Worth, TX 76133 $149,000 1,201 sq. ft. 8,712 sq. ft. $124
2017-07-20 Single Family Traditional 8308 Summer Park Drive Fort Worth, TX 76123 $400,000 4,776 sq. ft. 10,890 sq. ft. $84
2017-07-20 Single Family 4548 Corner Brook Lane Fort Worth, TX 76123 $195,000 2,620 sq. ft. 8,276 sq. ft. $74
2017-07-20 Single Family Traditional 4220 Gray Fox Drive Fort Worth, TX 76123 $168,000 2,105 sq. ft. 6,970 sq. ft. $80
2017-07-20 Single Family 4028 Foxhound Lane Fort Worth, TX 76123 $199,000 3,456 sq. ft. 6,098 sq. ft. $58
2017-07-19 Single Family Traditional 1025 Sierra Blanca Drive Fort Worth, TX 76028 $249,900 2,382 sq. ft. 6,970 sq. ft. $105
2017-07-19 Single Family 3617 Stanley Avenue Fort Worth, TX 76110 $114,800 992 sq. ft. 6,534 sq. ft. $116
2017-07-19 Single Family Traditional 7832 Mahonia Drive Fort Worth, TX 76133 $169,900 1,671 sq. ft. 6,534 sq. ft. $102
2017-07-19 Single Family Traditional 2804 Clovermeadow Drive Fort Worth, TX 76123 $180,000 2,343 sq. ft. 6,534 sq. ft. $77
2017-07-19 Single Family Traditional 8444 Miami Springs Drive Fort Worth, TX 76123 $179,900 1,868 sq. ft. 6,534 sq. ft. $96
2017-07-19 Single Family Traditional 1001 Minden Street Fort Worth, TX 76110 $70,000 693 sq. ft. 6,098 sq. ft. $101
2017-07-19 Single Family Traditional 7012 Saucon Valley Drive Fort Worth, TX 76132 $899,000 5,415 sq. ft. 13,504 sq. ft. $166
2017-07-19 Single Family Traditional 2709 Woodlark Drive Fort Worth, TX 76123 $139,900 1,620 sq. ft. 6,098 sq. ft. $86
2017-07-18 Single Family Craftsman; Traditional 3140 Odessa Avenue Fort Worth, TX 76109 $419,900 2,085 sq. ft. 7,405 sq. ft. $201
2017-07-18 Single Family Ranch 5660 Banks Road Fort Worth, TX 76140 $229,000 2,240 sq. ft. 43,560 sq. ft. $102
2017-07-18 Single Family Traditional 4605 Bellflower Way Fort Worth, TX 76123 $219,000 2,313 sq. ft. 7,405 sq. ft. $95
2017-07-17 Single Family Mediterranean; Traditional 3824 Saint Louis Avenue Fort Worth, TX 76110 $198,000 1,705 sq. ft. 6,098 sq. ft. $116
2017-07-17 Single Family Traditional 6132 Wrigley Way Fort Worth, TX 76133 $238,000 2,163 sq. ft. 10,454 sq. ft. $110
2017-07-17 Single Family Traditional 2300 Willing Avenue Fort Worth, TX 76110 $979,000 3,204 sq. ft. 10,890 sq. ft. $306
2017-07-17 Single Family Traditional 6416 Rockrose Trail Fort Worth, TX 76123 $287,212 2,027 sq. ft. 6,534 sq. ft. $142
2017-07-17 Single Family Traditional 357 Bellvue Drive Fort Worth, TX 76134 $145,000 1,490 sq. ft. 9,583 sq. ft. $97
2017-07-17 Single Family Traditional 2117 Harrison Avenue Fort Worth, TX 76110 $259,000 896 sq. ft. 4,792 sq. ft. $289
2017-07-17 Single Family Traditional 5401 Post Ridge Drive Fort Worth, TX 76123 $235,000 2,561 sq. ft. 8,712 sq. ft. $92
2017-07-17 Single Family Contemporary/Modern 4936 Madyson Ridge Drive Fort Worth, TX 76133 $146,900 1,390 sq. ft. 6,098 sq. ft. $106
2017-07-17 Single Family 3201 Wren Avenue Fort Worth, TX 76133 $188,900 1,635 sq. ft. 10,019 sq. ft. $116
2017-07-17 Single Family 5429 Wayside Avenue Fort Worth, TX 76134 $129,900 1,341 sq. ft. 8,276 sq. ft. $97
2017-07-17 Single Family 7233 Wagonwheel Road Fort Worth, TX 76133 $135,000 1,148 sq. ft. 5,227 sq. ft. $118
2017-07-15 Single Family Traditional 4500 Riveridge Drive Fort Worth, TX 76109 $535,000 2,291 sq. ft. 13,068 sq. ft. $234
2017-07-14 Single Family Mid-Century Modern; Traditional 3941 Weyburn Drive Fort Worth, TX 76109 $335,000 2,009 sq. ft. 10,890 sq. ft. $167
2017-07-14 Single Family 3509 Park Hollow Street Fort Worth, TX 76109 $949,000 4,104 sq. ft. 17,860 sq. ft. $231
2017-07-14 Single Family Traditional 5525 Winifred Drive Fort Worth, TX 76133 $148,000 1,595 sq. ft. 9,148 sq. ft. $93
2017-07-14 Single Family English 2913 Gordon Avenue Fort Worth, TX 76110 $449,319 2,661 sq. ft. 6,098 sq. ft. $169
2017-07-14 Single Family Traditional 3628 Seminary Drive Fort Worth, TX 76109 $225,625 1,820 sq. ft. 11,326 sq. ft. $124
2017-07-14 Single Family 7500 Grass Valley Trail Fort Worth, TX 76123 $155,000 1,441 sq. ft. 5,663 sq. ft. $108
2017-07-14 Single Family Traditional 7521 Pear Tree Lane Fort Worth, TX 76133 $175,000 1,690 sq. ft. 9,148 sq. ft. $104
2017-07-14 Single Family Traditional 4429 Quail Hollow Road Fort Worth, TX 76133 $249,900 2,815 sq. ft. 11,326 sq. ft. $89
2017-07-14 Single Family Mid-Century Modern; Traditional 3720 Winifred Drive Fort Worth, TX 76133 $254,500 2,512 sq. ft. 10,454 sq. ft. $101
2017-07-14 Single Family 1504 Castle Ridge Road Fort Worth, TX 76140 $140,000 1,537 sq. ft. 5,227 sq. ft. $91
2017-07-14 Single Family Traditional 9716 Windsor Circle Fort Worth, TX 76140 $216,000 2,031 sq. ft. 25,700 sq. ft. $106
2017-07-14 Single Family 8424 Ohara Lane Fort Worth, TX 76123 $155,900 1,390 sq. ft. 5,227 sq. ft. $112
2017-07-14 Single Family Traditional 1304 Doe Meadow Drive Fort Worth, TX 76028 $197,000 1,746 sq. ft. 6,098 sq. ft. $113
2017-07-14 Single Family Traditional 4800 Sleepy Ridge Circle Fort Worth, TX 76133 $205,000 3,261 sq. ft. 5,663 sq. ft. $63
2017-07-14 Single Family Traditional 1512 Willow Vale Drive Fort Worth, TX 76134 $159,900 1,640 sq. ft. 6,970 sq. ft. $98
2017-07-14 Single Family Traditional 4309 Country Hill Road Fort Worth, TX 76140 $275,000 3,186 sq. ft. 132,858 sq. ft. $86
2017-07-13 Single Family Traditional 2808 Leith Avenue Fort Worth, TX 76133 $120,000 2,023 sq. ft. 8,712 sq. ft. $59
2017-07-13 Single Family Traditional 8205 Bedrock Drive Fort Worth, TX 76123 $194,900 2,090 sq. ft. 6,098 sq. ft. $93
2017-07-13 Single Family Traditional 3413 Lawndale Fort Worth, TX 76133 $204,000 2,403 sq. ft. 10,890 sq. ft. $85
2017-07-13 Single Family Traditional 4433 Stepping Stone Drive Fort Worth, TX 76123 $225,000 2,370 sq. ft. 5,663 sq. ft. $95
2017-07-13 Single Family Ranch 4609 Hildring Drive Fort Worth, TX 76109 $389,500 2,164 sq. ft. 13,939 sq. ft. $180
2017-07-13 Single Family Traditional 2909 Gordon Avenue Fort Worth, TX 76110 $438,485 2,422 sq. ft. 6,098 sq. ft. $181
2017-07-13 Single Family Ranch; Traditional 4801 Countryside Court Fort Worth, TX 76132 $365,000 3,319 sq. ft. 23,958 sq. ft. $110
2017-07-13 Single Family Traditional 3863 Hunters Point Way Fort Worth, TX 76123 $139,900 1,374 sq. ft. 6,098 sq. ft. $102
2017-07-13 Single Family Traditional 8001 Autumn Creek Trail Fort Worth, TX 76134 $160,000 2,313 sq. ft. 8,712 sq. ft. $69
2017-07-13 Single Family Traditional 3300 Livingston Avenue Fort Worth, TX 76110 $119,900 892 sq. ft. 6,098 sq. ft. $134
2017-07-13 Single Family Traditional 9221 Saint Martin Road Fort Worth, TX 76123 $110,000 1,675 sq. ft. 5,663 sq. ft. $66
2017-07-13 Single Family Traditional 12105 Rolling Ridge Drive Fort Worth, TX 76028 $146,000 1,180 sq. ft. 5,663 sq. ft. $124
2017-07-12 Single Family Traditional 8628 Hornbeam Drive Fort Worth, TX 76123 $350,000 3,942 sq. ft. 8,712 sq. ft. $89
2017-07-12 Single Family Colonial; Craftsman 2944 Willing Avenue Fort Worth, TX 76110 $264,000 1,320 sq. ft. 6,098 sq. ft. $200
2017-07-12 Single Family Traditional 825 Merion Drive Fort Worth, TX 76028 $415,000 3,266 sq. ft. 7,405 sq. ft. $127
2017-07-12 Single Family Mediterranean 6609 Harbour Town Lane Fort Worth, TX 76132 $979,000 5,481 sq. ft. 20,909 sq. ft. $179
2017-07-12 Single Family Traditional 5009 Cedar Brush Drive Fort Worth, TX 76123 $249,900 2,813 sq. ft. 6,970 sq. ft. $89
2017-07-12 Single Family Traditional 5721 Winifred Drive Fort Worth, TX 76133 $165,000 1,698 sq. ft. 11,326 sq. ft. $97
2017-07-12 Single Family Traditional 5256 Smokey Ridge Drive Fort Worth, TX 76123 $269,900 2,439 sq. ft. 7,841 sq. ft. $111
2017-07-11 Single Family 4132 Brookway Drive Fort Worth, TX 76123 $206,240 2,578 sq. ft. 8,712 sq. ft. $80
2017-07-11 Single Family Ranch 1800 Henderson Street Fort Worth, TX 76110 $305,000 1,743 sq. ft. 6,098 sq. ft. $175
2017-07-11 Single Family Traditional 3909 Trail Lake Drive Fort Worth, TX 76109 $425,000 3,159 sq. ft. 15,246 sq. ft. $135
2017-07-11 Single Family Traditional 4704 South Drive Fort Worth, TX 76109 $237,900 2,077 sq. ft. 9,148 sq. ft. $115
2017-07-11 Single Family Traditional 8728 Polo Drive Fort Worth, TX 76123 $165,000 2,368 sq. ft. 5,663 sq. ft. $70
2017-07-11 Single Family Southwestern 13864 Riviera Drive Fort Worth, TX 76028 $689,000 4,745 sq. ft. 20,909 sq. ft. $145
2017-07-11 Single Family Traditional 6151 White Tail Trail Fort Worth, TX 76132 $239,900 1,812 sq. ft. 6,970 sq. ft. $132
2017-07-11 Single Family 3917 Thoroughbred Trail Fort Worth, TX 76123 $170,000 2,137 sq. ft. 6,534 sq. ft. $80
2017-07-10 Single Family Traditional 320 Revere Drive Fort Worth, TX 76134 $139,900 1,508 sq. ft. 9,583 sq. ft. $93
2017-07-10 Single Family Traditional 6817 Savannah Lane Fort Worth, TX 76132 $514,500 5,263 sq. ft. 12,197 sq. ft. $98
2017-07-10 Single Family A-Frame 9200 Nightingale Drive Fort Worth, TX 76123 $169,000 1,605 sq. ft. 5,663 sq. ft. $105
2017-07-10 Single Family Traditional 5418 Rendon New Hope Road Fort Worth, TX 76140 $520,000 2,338 sq. ft. 134,600 sq. ft. $222
2017-07-09 Single Family 5732 Westhaven Drive Fort Worth, TX 76132 $164,900 1,523 sq. ft. 10,890 sq. ft. $108
2017-07-08 Single Family Traditional 7428 Lea Place Fort Worth, TX 76140 $112,000 1,383 sq. ft. 8,276 sq. ft. $81
2017-07-08 Single Family Traditional 501 Crescent Creek Lane Fort Worth, TX 76140 $209,900 2,468 sq. ft. 5,663 sq. ft. $85
2017-07-08 Single Family Traditional 7504 Amhurst Circle Fort Worth, TX 76132 $339,900 2,282 sq. ft. 9,148 sq. ft. $149
2017-07-08 Single Family Traditional 7921 Hulen Park Circle Fort Worth, TX 76123 $164,900 1,712 sq. ft. 10,454 sq. ft. $96
2017-07-08 Single Family Traditional 2040 Beacon Way Fort Worth, TX 76140 $183,000 2,097 sq. ft. $87
2017-07-08 Single Family Craftsman 1936 Fairmount Avenue Fort Worth, TX 76110 $339,900 1,498 sq. ft. 6,970 sq. ft. $227
2017-07-08 Single Family 5512 Woodway Drive Fort Worth, TX 76133 $259,000 2,971 sq. ft. 13,504 sq. ft. $87
2017-07-07 Single Family Ranch 4221 Hildring Drive Fort Worth, TX 76109 $415,000 2,189 sq. ft. 13,939 sq. ft. $190
2017-07-07 Single Family 5604 Morley Avenue Fort Worth, TX 76133 $209,999 1,797 sq. ft. 10,019 sq. ft. $117
2017-07-07 Single Family Traditional 1312 Jefferson Avenue Fort Worth, TX 76104 $109,000 920 sq. ft. 6,098 sq. ft. $118
2017-07-07 Single Family Mediterranean; Traditional 6528 Turnberry Drive Fort Worth, TX 76132 $999,000 5,309 sq. ft. 14,375 sq. ft. $188
2017-07-07 Single Family Traditional 6057 Wonder Drive Fort Worth, TX 76133 $250,000 3,000 sq. ft. 11,326 sq. ft. $83
2017-07-07 Single Family Traditional 2916 Simondale Drive Fort Worth, TX 76109 $1,200,000 4,432 sq. ft. 29,185 sq. ft. $271
2017-07-07 Single Family Traditional 5200 Golden Lane Fort Worth, TX 76123 $279,800 3,043 sq. ft. 8,276 sq. ft. $92
2017-07-07 Single Family Traditional 7413 Lemonwood Lane Fort Worth, TX 76133 $199,000 2,062 sq. ft. 11,761 sq. ft. $97
2017-07-07 Single Family Traditional 2222 Huntington Lane Fort Worth, TX 76110 $799,000 3,213 sq. ft. 11,326 sq. ft. $249
2017-07-07 Single Family Traditional 5016 Chisholm View Drive Fort Worth, TX 76123 $324,848 2,773 sq. ft. 7,405 sq. ft. $117
2017-07-07 Single Family Traditional 7750 Yellowleaf Court Fort Worth, TX 76133 $135,000 1,654 sq. ft. 5,663 sq. ft. $82
2017-07-07 Single Family Traditional 2541 Coldstream Drive Fort Worth, TX 76123 $103,000 1,438 sq. ft. 6,534 sq. ft. $72
2017-07-06 Single Family 5433 Sierra Ridge Fort Worth, TX 76123 $245,000 2,896 sq. ft. 6,534 sq. ft. $85
2017-07-06 Single Family Traditional 9328 Horsemanship Drive Fort Worth, TX 76123 $337,900 3,319 sq. ft. $102
2017-07-06 Single Family Traditional 9217 Crossvine Way Fort Worth, TX 76123 $337,900 3,280 sq. ft. $103
2017-07-06 Single Family Traditional 9320 Horsemanship Drive Fort Worth, TX 76123 $275,900 1,947 sq. ft. $142
2017-07-06 Single Family Traditional 9324 Horsemanship Drive Fort Worth, TX 76123 $284,900 2,061 sq. ft. $138
2017-07-06 Single Family Traditional 9301 Crossvine Way Fort Worth, TX 76123 $297,900 2,150 sq. ft. $139
2017-07-06 Single Family Traditional 7812 Chantilly Lane Fort Worth, TX 76134 $194,900 2,462 sq. ft. 8,712 sq. ft. $79
2017-07-06 Single Family Ranch 3716 Kimberly Lane Fort Worth, TX 76133 $205,000 2,455 sq. ft. 14,375 sq. ft. $84
2017-07-06 Single Family Traditional 7717 Pampas Drive Fort Worth, TX 76133 $184,900 1,944 sq. ft. 8,276 sq. ft. $95
2017-07-06 Single Family Traditional 2541 Mill Springs Pass Fort Worth, TX 76123 $174,500 1,851 sq. ft. 5,663 sq. ft. $94
2017-07-06 Single Family Traditional 4237 Yellowleaf Drive Fort Worth, TX 76133 $130,000 1,502 sq. ft. 10,019 sq. ft. $87
2017-07-06 Single Family Traditional 5154 Winesanker Way Fort Worth, TX 76133 $185,000 1,735 sq. ft. 10,019 sq. ft. $107
2017-07-05 Single Family Craftsman; Ranch 3633 Biddison Street Fort Worth, TX 76109 $397,000 1,565 sq. ft. 12,197 sq. ft. $254
2017-07-05 Single Family A-Frame 4937 Vega Court Fort Worth, TX 76133 $167,000 1,499 sq. ft. 7,405 sq. ft. $111
2017-07-05 Single Family 8300 Prairie Wind Trail Fort Worth, TX 76134 $199,000 2,481 sq. ft. 8,276 sq. ft. $80
2017-07-05 Single Family 5428 Whitten Street Fort Worth, TX 76134 $128,000 1,048 sq. ft. 9,148 sq. ft. $122
2017-07-05 Single Family Ranch 5601 Teague Road Fort Worth, TX 76140 $665,000 4,197 sq. ft. 102,802 sq. ft. $158
2017-07-05 Single Family Traditional 8432 Cloverglen Lane Fort Worth, TX 76123 $121,000 1,070 sq. ft. 5,227 sq. ft. $113
2017-07-05 Single Family Traditional 8708 Thistle Ridge Terrace Fort Worth, TX 76123 $279,500 3,800 sq. ft. 6,970 sq. ft. $74
2017-07-05 Single Family A-Frame 956 Davis Avenue Fort Worth, TX 76104 $95,000 1,104 sq. ft. 6,098 sq. ft. $86
2017-07-05 Single Family Ranch 4612 Foxfire Way Fort Worth, TX 76133 $221,900 2,777 sq. ft. 11,326 sq. ft. $80
2017-07-04 Single Family Traditional 8817 Flying Ranch Road Fort Worth, TX 76134 $197,500 2,242 sq. ft. 5,663 sq. ft. $88
2017-07-03 Single Family Traditional 632 Misty Mountain Drive Fort Worth, TX 76140 $159,900 1,729 sq. ft. 5,663 sq. ft. $92
2017-07-03 Single Family Spanish 3672 Encanto Drive Fort Worth, TX 76109 $1,250,000 2,983 sq. ft. 40,946 sq. ft. $419
2017-07-03 Single Family Ranch; Traditional 4209 Hildring Drive Fort Worth, TX 76109 $489,000 2,996 sq. ft. 16,117 sq. ft. $163
2017-07-03 Single Family 1124 Stella Mae Drive Fort Worth, TX 76028 $165,000 1,280 sq. ft. 43,996 sq. ft. $129
2017-07-02 Single Family Contemporary/Modern 6813 Whitman Avenue Fort Worth, TX 76133 $169,000 1,718 sq. ft. 21,780 sq. ft. $98
2017-07-01 Single Family Traditional 3633 Wedgworth Road Fort Worth, TX 76133 $174,500 1,958 sq. ft. 7,405 sq. ft. $89
2017-07-01 Single Family Traditional 7801 Pasteur Court Fort Worth, TX 76133 $255,150 2,788 sq. ft. 6,970 sq. ft. $92
2017-07-01 Single Family 6824 Ashbury Drive Fort Worth, TX 76133 $129,900 1,235 sq. ft. 4,792 sq. ft. $105
2017-07-01 Single Family Craftsman 1205 Orange Street Fort Worth, TX 76110 $185,000 2,052 sq. ft. 6,970 sq. ft. $90
2017-07-01 Single Family Traditional 2609 5th Avenue Fort Worth, TX 76110 $385,000 1,779 sq. ft. 8,276 sq. ft. $216
2017-07-01 Single Family Traditional 7533 Sweet Meadows Drive Fort Worth, TX 76123 $220,000 2,750 sq. ft. 6,970 sq. ft. $80
2017-06-30 Single Family 2712 Poplar Spring Road Fort Worth, TX 76123 $155,000 1,779 sq. ft. 6,098 sq. ft. $87
2017-06-30 Single Family 4508 Saldana Drive Fort Worth, TX 76133 $219,000 2,415 sq. ft. 10,019 sq. ft. $91
2017-06-30 Single Family Traditional 5417 Rolling Meadows Drive Fort Worth, TX 76123 $269,000 3,494 sq. ft. 6,970 sq. ft. $77
2017-06-30 Single Family Traditional 5828 Burgundy Rose Drive Fort Worth, TX 76123 $219,000 2,062 sq. ft. 4,356 sq. ft. $106
2017-06-30 Single Family Traditional 4908 Woodbend Court Fort Worth, TX 76132 $489,900 3,316 sq. ft. 13,068 sq. ft. $148
2017-06-30 Single Family 4412 Corner Brook Fort Worth, TX 76123 $279,900 4,026 sq. ft. 6,970 sq. ft. $70
2017-06-30 Single Family Traditional 5633 Wimbleton Way Fort Worth, TX 76133 $210,000 1,965 sq. ft. 10,019 sq. ft. $107
2017-06-30 Single Family Traditional 7709 Harmony Drive Fort Worth, TX 76133 $179,900 1,790 sq. ft. 8,276 sq. ft. $100
2017-06-30 Single Family Traditional 1313 Doe Meadow Drive Fort Worth, TX 76028 $214,900 2,521 sq. ft. 6,098 sq. ft. $85
2017-06-30 Single Family Traditional 5421 Sierra Ridge Drive Fort Worth, TX 76123 $314,900 2,955 sq. ft. 6,534 sq. ft. $107
2017-06-29 Single Family Craftsman 2733 Townsend Drive Fort Worth, TX 76110 $409,000 1,968 sq. ft. 6,098 sq. ft. $208
2017-06-29 Single Family 8329 Summer Park Drive Fort Worth, TX 76123 $295,000 3,600 sq. ft. 9,148 sq. ft. $82
2017-06-29 Single Family Traditional 7516 Creek Meadow Drive Fort Worth, TX 76123 $249,000 3,496 sq. ft. 6,970 sq. ft. $71
2017-06-29 Single Family Tudor 2037 Hawthorne Avenue Fort Worth, TX 76110 $475,000 1,904 sq. ft. 8,276 sq. ft. $249
2017-06-29 Single Family Mediterranean 6709 Oak Hill Drive Fort Worth, TX 76132 $1,045,000 5,056 sq. ft. 16,988 sq. ft. $207
2017-06-29 Single Family 5029 Stockwhip Fort Worth, TX 76123 $350,000 3,253 sq. ft. $108